Time;durP1;ratioP1;P1;durP2;ratioP2;P2;SDS_P1;SDS_P2;PMS_P1;PMS_P2;Temp;Humidity;BMP_temperature;BMP_pressure;BME280_temperature;BME280_humidity;BME280_pressure;Samples;Min_cycle;Max_cycle;Signal;HPM_P1;HPM_P2
2023/03/04 00:03:13;;;;;;;;;;;;;;;5.51;77.15;102531.03;10421710;28;19925;-63
2023/03/04 00:08:15;;;;;;;;;;;;;;;5.80;76.27;102527.31;10421563;28;19925;-63
2023/03/04 00:13:19;;;;;;;;;;;;;;;5.88;75.45;102528.09;10421855;28;19948;-63
2023/03/04 00:18:22;;;;;;;;;;;;;;;5.86;75.60;102516.84;10421303;28;19929;-63
2023/03/04 00:23:24;;;;;;;;;;;;;;;5.89;76.37;102520.28;10420847;28;19925;-63
2023/03/04 00:28:26;;;;;;;;;;;;;;;5.89;75.52;102515.06;10420037;28;20450;-63
2023/03/04 00:33:29;;;;;;;;;;;;;;;5.61;77.20;102527.47;10420370;28;19925;-63
2023/03/04 00:38:31;;;;;;;;;;;;;;;5.72;76.87;102511.81;10421235;28;19929;-63
2023/03/04 00:43:33;;;;;;;;;;;;;;;5.85;76.80;102510.81;10420298;28;20344;-63
2023/03/04 00:48:37;;;;;;;;;;;;;;;5.64;77.71;102506.66;10419277;28;20368;-63
2023/03/04 00:53:39;;;;;;;;;;;;;;;5.53;77.55;102513.69;10420645;28;19951;-62
2023/03/04 00:58:41;;;;;;;;;;;;;;;5.56;77.80;102509.34;10419667;28;19925;-62
2023/03/04 01:03:44;;;;;;;;;;;;;;;5.51;78.18;102518.03;10419538;28;19929;-63
2023/03/04 01:08:46;;;;;;;;;;;;;;;5.37;78.65;102518.16;10418441;28;19932;-63
2023/03/04 01:13:48;;;;;;;;;;;;;;;5.50;77.92;102518.94;10418929;28;20265;-63
2023/03/04 01:18:50;;;;;;;;;;;;;;;5.49;78.53;102517.19;10418590;28;19925;-63
2023/03/04 01:23:52;;;;;;;;;;;;;;;5.50;79.45;102503.34;10418448;28;19925;-63
2023/03/04 01:28:55;;;;;;;;;;;;;;;5.39;79.61;102501.69;10420301;23;19932;-62
2023/03/04 01:33:57;;;;;;;;;;;;;;;5.44;79.52;102501.63;10378066;28;19976;-62
2023/03/04 01:38:59;;;;;;;;;;;;;;;5.65;78.98;102502.31;10377280;28;19925;-62
2023/03/04 01:44:01;;;;;;;;;;;;;;;5.48;79.57;102494.69;10416876;28;19929;-62
2023/03/04 01:49:05;;;;;;;;;;;;;;;5.36;79.16;102487.84;10400188;28;19983;-62
2023/03/04 01:54:07;;;;;;;;;;;;;;;5.62;78.87;102492.81;10399998;28;19926;-62
2023/03/04 01:59:14;;;;;;;;;;;;;;;5.45;78.99;102472.19;10417113;28;19925;-61
2023/03/04 02:04:16;;;;;;;;;;;;;;;5.60;79.83;102471.19;10416335;28;19981;-62
2023/03/04 02:09:19;;;;;;;;;;;;;;;5.32;80.21;102468.00;10400070;28;19997;-62
2023/03/04 02:14:21;;;;;;;;;;;;;;;5.52;80.79;102457.41;10416006;28;19925;-62
2023/03/04 02:19:29;;;;;;;;;;;;;;;5.64;80.30;102462.47;10417221;28;19929;-62
2023/03/04 02:24:31;;;;;;;;;;;;;;;5.58;80.22;102459.94;10415550;28;19929;-62
2023/03/04 02:29:33;;;;;;;;;;;;;;;5.42;80.86;102453.19;10398301;28;19929;-62
2023/03/04 02:34:35;;;;;;;;;;;;;;;5.36;81.76;102452.38;10416157;28;19925;-62
2023/03/04 02:39:39;;;;;;;;;;;;;;;5.66;80.72;102449.47;10399084;28;19929;-62
2023/03/04 02:44:45;;;;;;;;;;;;;;;5.44;81.88;102454.03;10396315;28;20359;-62
2023/03/04 02:49:47;;;;;;;;;;;;;;;5.62;81.23;102450.41;10398113;28;19925;-62
2023/03/04 02:54:49;;;;;;;;;;;;;;;5.85;79.66;102444.94;10396489;28;19925;-61
2023/03/04 02:59:51;;;;;;;;;;;;;;;5.67;80.93;102444.28;10415437;28;19926;-62
2023/03/04 03:04:53;;;;;;;;;;;;;;;5.55;80.62;102431.41;10414193;28;19982;-62
2023/03/04 03:09:56;;;;;;;;;;;;;;;5.25;81.48;102428.22;10415271;28;19979;-62
2023/03/04 03:14:58;;;;;;;;;;;;;;;5.39;80.66;102426.34;10414650;28;19948;-62
2023/03/04 03:20:00;;;;;;;;;;;;;;;5.43;79.78;102414.22;10374383;28;20376;-62
2023/03/04 03:25:02;;;;;;;;;;;;;;;5.46;80.87;102415.91;10397435;28;19979;-61
2023/03/04 03:30:05;;;;;;;;;;;;;;;5.40;80.61;102406.44;10415142;28;20013;-62
2023/03/04 03:35:08;;;;;;;;;;;;;;;5.48;80.36;102411.53;10415537;28;19948;-62
2023/03/04 03:40:10;;;;;;;;;;;;;;;5.49;80.11;102405.50;10414045;28;19929;-62
2023/03/04 03:45:12;;;;;;;;;;;;;;;5.09;81.18;102404.13;10415249;28;19931;-61
2023/03/04 03:50:15;;;;;;;;;;;;;;;5.63;79.69;102402.72;10414566;28;19952;-62
2023/03/04 03:55:17;;;;;;;;;;;;;;;5.65;79.35;102416.56;10413714;28;20422;-62
2023/03/04 04:00:19;;;;;;;;;;;;;;;5.74;79.05;102409.53;10414268;28;19979;-62
2023/03/04 04:05:21;;;;;;;;;;;;;;;5.55;79.48;102410.63;10421220;28;19925;-62
2023/03/04 04:10:24;;;;;;;;;;;;;;;5.28;81.04;102409.13;10421588;28;19945;-61
2023/03/04 04:15:26;;;;;;;;;;;;;;;5.45;80.65;102409.00;10420550;28;19971;-62
2023/03/04 04:20:28;;;;;;;;;;;;;;;5.32;81.00;102409.09;10421083;28;19979;-62
2023/03/04 04:25:30;;;;;;;;;;;;;;;5.45;81.23;102409.84;10420197;28;20389;-62
2023/03/04 04:30:32;;;;;;;;;;;;;;;5.19;82.22;102415.28;10420889;28;19925;-61
2023/03/04 04:35:34;;;;;;;;;;;;;;;5.46;82.08;102415.91;10420619;28;19968;-62
2023/03/04 04:40:37;;;;;;;;;;;;;;;5.63;80.69;102413.13;10402114;28;19925;-62
2023/03/04 04:45:39;;;;;;;;;;;;;;;5.47;81.16;102410.69;10419510;28;19929;-62
2023/03/04 04:50:41;;;;;;;;;;;;;;;5.45;81.11;102415.06;10402415;28;19925;-61
2023/03/04 04:55:43;;;;;;;;;;;;;;;5.39;81.47;102420.31;10420506;28;19929;-62
2023/03/04 05:00:45;;;;;;;;;;;;;;;5.77;80.56;102422.50;10419712;28;20372;-62
2023/03/04 05:05:48;;;;;;;;;;;;;;;5.52;82.06;102421.91;10419480;28;19925;-62
2023/03/04 05:10:50;;;;;;;;;;;;;;;5.56;81.66;102418.41;10419025;28;19925;-62
2023/03/04 05:15:53;;;;;;;;;;;;;;;5.33;82.99;102422.94;10400764;28;19926;-62
2023/03/04 05:20:57;;;;;;;;;;;;;;;5.42;83.14;102414.22;10400570;28;20445;-62
2023/03/04 05:25:59;;;;;;;;;;;;;;;5.43;83.06;102410.72;10401751;28;19929;-62
2023/03/04 05:31:02;;;;;;;;;;;;;;;5.52;82.81;102406.31;10418631;28;19929;-62
2023/03/04 05:36:04;;;;;;;;;;;;;;;5.47;84.13;102420.22;10417440;28;19929;-62
2023/03/04 05:41:07;;;;;;;;;;;;;;;5.38;84.56;102416.00;10418046;28;19925;-62
2023/03/04 05:46:16;;;;;;;;;;;;;;;5.37;85.64;102422.91;10417905;28;19941;-62
2023/03/04 05:51:18;;;;;;;;;;;;;;;5.35;84.62;102411.69;10418377;28;20008;-62
2023/03/04 05:56:20;;;;;;;;;;;;;;;5.32;85.26;102426.44;10418101;28;19932;-62
2023/03/04 06:01:22;;;;;;;;;;;;;;;5.17;86.02;102420.50;10417214;28;19936;-62
2023/03/04 06:06:25;;;;;;;;;;;;;;;5.36;85.38;102423.81;10416999;28;19936;-62
2023/03/04 06:11:27;;;;;;;;;;;;;;;5.34;85.44;102424.69;10417547;28;19925;-62
2023/03/04 06:16:29;;;;;;;;;;;;;;;5.48;85.40;102440.13;10417334;28;19971;-62
2023/03/04 06:21:31;;;;;;;;;;;;;;;5.25;88.15;102436.03;10415827;28;19925;-62
2023/03/04 06:26:33;;;;;;;;;;;;;;;5.22;90.11;102433.44;10416917;28;19944;-62
2023/03/04 06:31:35;;;;;;;;;;;;;;;5.11;90.99;102438.75;10416102;28;19926;-62
2023/03/04 06:36:38;;;;;;;;;;;;;;;5.32;91.78;102437.69;10415326;28;19970;-62
2023/03/04 06:41:40;;;;;;;;;;;;;;;5.34;91.85;102440.25;10415750;28;19971;-62
2023/03/04 06:46:42;;;;;;;;;;;;;;;5.37;91.69;102440.25;10415781;28;19926;-62
2023/03/04 06:51:44;;;;;;;;;;;;;;;5.24;91.75;102438.63;10415818;28;20384;-62
2023/03/04 06:56:46;;;;;;;;;;;;;;;5.36;92.25;102434.19;10414928;28;19952;-62
2023/03/04 07:01:48;;;;;;;;;;;;;;;5.75;89.56;102445.06;10414652;28;19933;-62
2023/03/04 07:06:51;;;;;;;;;;;;;;;5.71;88.30;102440.75;10415988;28;19925;-62
2023/03/04 07:11:53;;;;;;;;;;;;;;;5.67;89.11;102444.28;10415940;28;19925;-62
2023/03/04 07:16:55;;;;;;;;;;;;;;;5.56;89.34;102448.69;10414043;28;20323;-62
2023/03/04 07:21:57;;;;;;;;;;;;;;;5.21;89.79;102447.28;10397705;28;19925;-62
2023/03/04 07:26:59;;;;;;;;;;;;;;;5.53;87.49;102454.81;10415040;28;19952;-62
2023/03/04 07:32:05;;;;;;;;;;;;;;;5.53;89.40;102461.72;10413073;28;19925;-62
2023/03/04 07:37:08;;;;;;;;;;;;;;;5.70;88.61;102459.84;10399700;28;19925;-62
2023/03/04 07:42:10;;;;;;;;;;;;;;;5.59;88.97;102464.28;10423327;28;19928;-62
2023/03/04 07:47:12;;;;;;;;;;;;;;;5.15;96.12;102462.94;10402287;28;19925;-62
2023/03/04 07:52:14;;;;;;;;;;;;;;;5.69;94.57;102471.09;10420541;28;19929;-62
2023/03/04 07:57:16;;;;;;;;;;;;;;;6.06;94.45;102465.53;10422769;28;19925;-62
2023/03/04 08:02:18;;;;;;;;;;;;;;;5.75;91.37;102473.63;10422527;28;19945;-62
2023/03/04 08:07:21;;;;;;;;;;;;;;;5.61;94.41;102477.25;10421353;28;19932;-62
2023/03/04 08:12:24;;;;;;;;;;;;;;;6.33;90.07;102481.69;10422160;28;19951;-62
2023/03/04 08:17:28;;;;;;;;;;;;;;;6.32;88.60;102478.22;10421440;28;20372;-62
2023/03/04 08:22:30;;;;;;;;;;;;;;;6.44;88.13;102476.31;10420190;28;19925;-62
2023/03/04 08:27:32;;;;;;;;;;;;;;;6.43;89.18;102485.88;10419215;28;20277;-62
2023/03/04 08:32:35;;;;;;;;;;;;;;;6.44;91.33;102482.41;10420504;28;19929;-62
2023/03/04 08:37:37;;;;;;;;;;;;;;;6.72;89.73;102481.16;10418037;28;19936;-62
2023/03/04 08:42:40;;;;;;;;;;;;;;;6.52;90.17;102479.69;10420322;28;19925;-62
2023/03/04 08:47:42;;;;;;;;;;;;;;;6.32;95.08;102482.53;10419386;28;19925;-62
2023/03/04 08:52:44;;;;;;;;;;;;;;;6.65;92.90;102485.59;10420185;28;19956;-63
2023/03/04 08:57:46;;;;;;;;;;;;;;;6.83;90.38;102474.06;10420577;28;19932;-62
2023/03/04 09:02:49;;;;;;;;;;;;;;;7.02;87.59;102472.03;10419654;28;20317;-62
2023/03/04 09:07:51;;;;;;;;;;;;;;;7.36;88.37;102481.88;10420182;28;19931;-62
2023/03/04 09:12:53;;;;;;;;;;;;;;;7.52;87.25;102467.72;10419903;28;19925;-62
2023/03/04 09:17:55;;;;;;;;;;;;;;;7.23;85.74;102476.06;10419743;28;19925;-62
2023/03/04 09:22:58;;;;;;;;;;;;;;;8.34;84.04;102472.22;10419465;28;19951;-62
2023/03/04 09:28:00;;;;;;;;;;;;;;;8.24;83.87;102459.38;10418720;28;19933;-63
2023/03/04 09:33:02;;;;;;;;;;;;;;;8.26;80.31;102462.81;10418328;28;19971;-62
2023/03/04 09:38:04;;;;;;;;;;;;;;;7.66;84.20;102462.25;10401412;28;20008;-62
2023/03/04 09:43:10;;;;;;;;;;;;;;;7.61;84.53;102453.66;10418048;28;19932;-62
2023/03/04 09:48:13;;;;;;;;;;;;;;;7.14;87.44;102450.97;10400964;28;19933;-63
2023/03/04 09:53:22;;;;;;;;;;;;;;;7.34;88.11;102453.25;10418924;28;19925;-62
2023/03/04 09:58:27;;;;;;;;;;;;;;;7.61;85.51;102451.91;10418134;28;19933;-62
2023/03/04 10:03:32;;;;;;;;;;;;;;;7.41;84.73;102447.06;10416878;28;20372;-62
2023/03/04 10:08:54;;;;;;;;;;;;;;;7.30;87.55;102454.22;10417736;28;19964;-62
2023/03/04 10:14:04;;;;;;;;;;;;;;;6.66;97.86;102461.31;10416898;28;20387;-63
2023/03/04 10:19:12;;;;;;;;;;;;;;;7.41;97.66;102460.09;10399890;28;19948;-63
2023/03/04 10:24:16;;;;;;;;;;;;;;;7.28;94.67;102444.69;10416454;28;19929;-62
2023/03/04 10:29:20;;;;;;;;;;;;;;;8.23;88.69;102448.06;10416246;28;20368;-62
2023/03/04 10:34:22;;;;;;;;;;;;;;;8.87;84.18;102437.97;10399404;28;19971;-62
2023/03/04 10:39:26;;;;;;;;;;;;;;;8.65;84.94;102442.84;10416700;28;19929;-62
2023/03/04 10:44:29;;;;;;;;;;;;;;;8.57;85.49;102443.91;10399146;28;19925;-63
2023/03/04 10:49:31;;;;;;;;;;;;;;;8.88;82.40;102428.41;10416429;28;19929;-62
2023/03/04 10:54:39;;;;;;;;;;;;;;;8.89;82.45;102417.03;10416585;28;19941;-63
2023/03/04 10:59:52;;;;;;;;;;;;;;;8.71;82.20;102413.13;10415657;28;20376;-62
2023/03/04 11:05:05;;;;;;;;;;;;;;;8.41;83.92;102412.91;10416103;28;19929;-62
2023/03/04 11:10:08;;;;;;;;;;;;;;;8.33;84.22;102413.06;10415957;28;19975;-63
2023/03/04 11:15:17;;;;;;;;;;;;;;;7.75;89.62;102416.88;10404886;28;19925;-63
2023/03/04 11:20:19;;;;;;;;;;;;;;;8.34;89.72;102411.34;10406637;28;19987;-62
2023/03/04 11:25:42;;;;;;;;;;;;;;;10.53;84.19;102400.31;10423407;28;20289;-63
2023/03/04 11:30:45;;;;;;;;;;;;;;;8.66;84.75;102396.72;10415853;28;19940;-62
2023/03/04 11:35:57;;;;;;;;;;;;;;;9.18;87.50;102394.53;10423848;28;19925;-62
2023/03/04 11:41:11;;;;;;;;;;;;;;;9.09;82.96;102387.78;10405634;28;19967;-62
2023/03/04 11:46:20;;;;;;;;;;;;;;;8.48;86.81;102388.41;10422615;28;20322;-62
2023/03/04 11:51:24;;;;;;;;;;;;;;;8.37;86.01;102372.09;10422639;28;19972;-62
2023/03/04 11:56:37;;;;;;;;;;;;;;;9.13;83.01;102365.94;10422351;28;20376;-62
2023/03/04 12:01:51;;;;;;;;;;;;;;;8.68;87.01;102360.97;10405275;28;19929;-62
2023/03/04 12:07:04;;;;;;;;;;;;;;;8.68;89.56;102355.75;10422545;28;19926;-62
2023/03/04 12:12:14;;;;;;;;;;;;;;;9.04;89.74;102348.72;10404725;28;19940;-62
2023/03/04 12:17:16;;;;;;;;;;;;;;;9.40;83.77;102337.34;10404626;28;19975;-62
2023/03/04 12:22:21;;;;;;;;;;;;;;;9.38;84.96;102329.53;10420911;28;19979;-62
2023/03/04 12:27:27;;;;;;;;;;;;;;;8.77;85.45;102331.16;10421155;28;19980;-62
2023/03/04 12:32:38;;;;;;;;;;;;;;;8.48;86.83;102328.38;10403526;28;19925;-62
2023/03/04 12:37:43;;;;;;;;;;;;;;;9.07;85.25;102327.75;10421447;28;19960;-64
2023/03/04 12:42:54;;;;;;;;;;;;;;;8.67;86.84;102318.31;10403027;28;20319;-62
2023/03/04 12:48:16;;;;;;;;;;;;;;;9.35;85.51;102320.94;10402834;28;19929;-63
2023/03/04 12:53:18;;;;;;;;;;;;;;;9.34;86.38;102311.34;10403335;28;19929;-62
2023/03/04 12:58:21;;;;;;;;;;;;;;;9.64;82.75;102307.84;10420623;28;19932;-63
2023/03/04 13:03:25;;;;;;;;;;;;;;;9.66;82.61;102305.19;10402768;28;19926;-62
2023/03/04 13:08:29;;;;;;;;;;;;;;;8.93;84.09;102301.13;10402011;28;20456;-62
2023/03/04 13:13:31;;;;;;;;;;;;;;;8.79;85.19;102291.03;10419998;28;19925;-62
2023/03/04 13:18:39;;;;;;;;;;;;;;;8.54;86.22;102288.22;10419189;28;19925;-63
2023/03/04 13:23:42;;;;;;;;;;;;;;;7.95;89.50;102301.72;10418896;28;19929;-62
2023/03/04 13:28:44;;;;;;;;;;;;;;;7.86;88.68;102296.72;10418740;28;19940;-63
2023/03/04 13:33:48;;;;;;;;;;;;;;;8.18;85.53;102290.78;10401254;28;19929;-62
2023/03/04 13:38:57;;;;;;;;;;;;;;;8.97;81.45;102279.25;10418097;28;20372;-63
2023/03/04 13:44:00;;;;;;;;;;;;;;;9.60;80.23;102267.03;10396661;23;19945;-64
2023/03/04 13:49:02;;;;;;;;;;;;;;;12.39;71.25;102266.78;10392862;28;19952;-65
2023/03/04 13:54:07;;;;;;;;;;;;;;;12.97;63.48;102261.66;10376308;28;19929;-65
2023/03/04 13:59:11;;;;;;;;;;;;;;;11.10;68.92;102262.16;10391826;28;20324;-65
2023/03/04 14:04:18;;;;;;;;;;;;;;;9.65;72.36;102257.28;10376420;28;19948;-65
2023/03/04 14:09:27;;;;;;;;;;;;;;;9.65;70.95;102262.50;10376411;28;19926;-65
2023/03/04 14:14:31;;;;;;;;;;;;;;;9.73;70.03;102257.03;10376099;28;20364;-65
2023/03/04 14:19:43;;;;;;;;;;;;;;;9.49;70.24;102259.47;10416293;28;19929;-65
2023/03/04 14:25:05;;;;;;;;;;;;;;;9.48;69.97;102256.91;10399711;28;19980;-65
2023/03/04 14:30:17;;;;;;;;;;;;;;;8.93;70.94;102254.97;10402743;28;19929;-65
2023/03/04 14:35:28;;;;;;;;;;;;;;;9.26;71.05;102256.69;10400267;28;19933;-65
2023/03/04 14:40:32;;;;;;;;;;;;;;;9.05;71.13;102255.53;10399236;28;19925;-65
2023/03/04 14:45:34;;;;;;;;;;;;;;;9.19;70.61;102252.53;10415700;28;19991;-65
2023/03/04 14:50:36;;;;;;;;;;;;;;;8.65;71.54;102247.00;10416430;28;19931;-64
2023/03/04 14:55:39;;;;;;;;;;;;;;;7.73;73.36;102247.47;10398149;28;19925;-65
2023/03/04 15:00:42;;;;;;;;;;;;;;;7.70;74.19;102242.31;10416188;28;20040;-65
2023/03/04 15:05:44;;;;;;;;;;;;;;;8.28;73.51;102234.00;10415412;28;20289;-65
2023/03/04 15:10:56;;;;;;;;;;;;;;;8.36;72.08;102243.38;10415938;28;19983;-65
2023/03/04 15:15:59;;;;;;;;;;;;;;;8.32;73.00;102233.91;10415361;28;19925;-65
2023/03/04 15:21:02;;;;;;;;;;;;;;;8.42;72.36;102233.66;10415788;28;19925;-65
2023/03/04 15:26:05;;;;;;;;;;;;;;;7.95;73.65;102223.47;10415030;28;20395;-65
2023/03/04 15:31:18;;;;;;;;;;;;;;;7.90;73.10;102227.94;10397544;28;19933;-65
2023/03/04 15:36:20;;;;;;;;;;;;;;;8.08;70.16;102224.91;10398089;28;19972;-65
2023/03/04 15:41:24;;;;;;;;;;;;;;;8.47;69.15;102226.59;10398059;28;19932;-65
2023/03/04 15:46:26;;;;;;;;;;;;;;;8.51;69.20;102212.59;10414453;28;20273;-65
2023/03/04 15:51:28;;;;;;;;;;;;;;;8.36;67.44;102213.81;10414686;28;20379;-65
2023/03/04 15:56:32;;;;;;;;;;;;;;;8.12;68.19;102210.03;10397074;28;19933;-65
2023/03/04 16:01:34;;;;;;;;;;;;;;;8.27;67.96;102201.84;10404513;28;19932;-65
2023/03/04 16:06:36;;;;;;;;;;;;;;;7.96;68.61;102207.81;10422522;28;19929;-65
2023/03/04 16:11:41;;;;;;;;;;;;;;;7.88;68.86;102208.88;10422392;28;19925;-65
2023/03/04 16:16:43;;;;;;;;;;;;;;;7.95;68.31;102206.09;10404214;28;20407;-65
2023/03/04 16:21:45;;;;;;;;;;;;;;;7.56;69.93;102210.47;10422042;28;19925;-65
2023/03/04 16:26:47;;;;;;;;;;;;;;;7.37;72.49;102210.88;10421120;28;19925;-65
2023/03/04 16:31:50;;;;;;;;;;;;;;;7.31;73.65;102216.22;10421640;28;19925;-65
2023/03/04 16:36:52;;;;;;;;;;;;;;;7.23;74.20;102215.53;10403857;28;19925;-65
2023/03/04 16:41:54;;;;;;;;;;;;;;;7.53;73.92;102208.81;10421262;28;19932;-65
2023/03/04 16:46:56;;;;;;;;;;;;;;;7.00;74.96;102221.19;10420147;28;19929;-65
2023/03/04 16:51:59;;;;;;;;;;;;;;;7.15;73.87;102220.03;10420858;28;19933;-65
2023/03/04 16:57:01;;;;;;;;;;;;;;;7.10;73.13;102219.28;10403079;28;19952;-65
2023/03/04 17:02:05;;;;;;;;;;;;;;;7.24;71.57;102212.88;10420502;28;19925;-65
2023/03/04 17:07:07;;;;;;;;;;;;;;;7.15;71.61;102215.69;10402016;28;20339;-65
2023/03/04 17:12:10;;;;;;;;;;;;;;;7.23;71.71;102221.59;10418525;28;20395;-64
2023/03/04 17:17:12;;;;;;;;;;;;;;;7.03;71.71;102223.75;10419873;28;19929;-65
2023/03/04 17:22:16;;;;;;;;;;;;;;;6.61;72.42;102224.53;10418411;28;21365;-65
2023/03/04 17:27:18;;;;;;;;;;;;;;;6.48;74.44;102244.69;10417080;28;19979;-65
2023/03/04 17:32:21;;;;;;;;;;;;;;;6.49;75.47;102225.59;10418847;28;19925;-64
2023/03/04 17:37:23;;;;;;;;;;;;;;;6.47;76.40;102237.78;10418858;28;19925;-65
2023/03/04 17:42:25;;;;;;;;;;;;;;;6.47;76.41;102236.91;10418027;28;19925;-65
2023/03/04 17:47:27;;;;;;;;;;;;;;;6.27;76.77;102239.84;10415540;28;19987;-65
2023/03/04 17:52:30;;;;;;;;;;;;;;;6.38;75.90;102243.13;10416632;28;19925;-65
2023/03/04 17:57:36;;;;;;;;;;;;;;;6.38;74.99;102237.06;10418293;28;19929;-65
2023/03/04 18:02:38;;;;;;;;;;;;;;;6.21;75.71;102234.75;10418157;28;19976;-65
2023/03/04 18:07:40;;;;;;;;;;;;;;;6.47;75.53;102234.31;10415322;28;19925;-65
2023/03/04 18:12:43;;;;;;;;;;;;;;;6.31;76.10;102239.78;10416473;28;19929;-65
2023/03/04 18:17:46;;;;;;;;;;;;;;;6.45;75.80;102244.72;10415174;28;19925;-65
2023/03/04 18:22:48;;;;;;;;;;;;;;;6.47;75.37;102240.38;10415518;28;19925;-65
2023/03/04 18:27:50;;;;;;;;;;;;;;;6.44;76.20;102237.84;10415393;28;19925;-65
2023/03/04 18:32:53;;;;;;;;;;;;;;;6.26;77.00;102245.94;10416954;28;19926;-65
2023/03/04 18:37:55;;;;;;;;;;;;;;;6.33;76.98;102245.78;10416816;28;19925;-65
2023/03/04 18:42:58;;;;;;;;;;;;;;;6.22;77.67;102249.47;10415080;28;19941;-64
2023/03/04 18:48:01;;;;;;;;;;;;;;;6.18;78.43;102253.84;10414960;28;19960;-65
2023/03/04 18:53:03;;;;;;;;;;;;;;;5.94;80.98;102255.06;10414427;28;19947;-64
2023/03/04 18:58:05;;;;;;;;;;;;;;;5.67;81.36;102266.72;10416266;28;19932;-64
2023/03/04 19:03:08;;;;;;;;;;;;;;;5.93;80.06;102261.13;10415382;28;19995;-64
2023/03/04 19:08:10;;;;;;;;;;;;;;;5.79;80.57;102255.28;10413615;28;20273;-64
2023/03/04 19:13:14;;;;;;;;;;;;;;;5.70;80.60;102253.66;10413252;28;19925;-65
2023/03/04 19:18:16;;;;;;;;;;;;;;;5.86;81.15;102254.31;10411740;28;19932;-65
2023/03/04 19:23:19;;;;;;;;;;;;;;;5.69;81.52;102263.19;10396472;28;19925;-64
2023/03/04 19:28:23;;;;;;;;;;;;;;;5.69;81.01;102257.16;10415495;28;19925;-64
2023/03/04 19:33:27;;;;;;;;;;;;;;;5.86;80.84;102259.50;10417900;28;19925;-64
2023/03/04 19:38:30;;;;;;;;;;;;;;;5.70;80.49;102259.72;10421382;28;19925;-65
2023/03/04 19:43:35;;;;;;;;;;;;;;;5.49;81.91;102257.41;10422238;28;19933;-64
2023/03/04 19:48:38;;;;;;;;;;;;;;;5.54;82.99;102251.25;10418386;28;19925;-64
2023/03/04 19:53:40;;;;;;;;;;;;;;;5.55;83.47;102252.13;10418452;28;20376;-65
2023/03/04 19:58:42;;;;;;;;;;;;;;;5.63;83.10;102247.72;10422234;28;19925;-64
2023/03/04 20:03:45;;;;;;;;;;;;;;;5.69;82.63;102249.34;10405457;28;19980;-65
2023/03/04 20:08:47;;;;;;;;;;;;;;;5.73;82.57;102243.22;10416556;28;20288;-65
2023/03/04 20:13:49;;;;;;;;;;;;;;;5.55;82.88;102237.41;10422316;28;19929;-65
2023/03/04 20:18:51;;;;;;;;;;;;;;;5.83;82.31;102239.59;10421388;28;19925;-65
2023/03/04 20:23:53;;;;;;;;;;;;;;;5.68;82.34;102240.72;10388247;28;19933;-65
2023/03/04 20:28:56;;;;;;;;;;;;;;;5.82;81.11;102244.84;10416921;28;19925;-65
2023/03/04 20:33:58;;;;;;;;;;;;;;;5.67;82.80;102245.91;10401666;28;19924;-65
2023/03/04 20:39:00;;;;;;;;;;;;;;;5.67;82.96;102246.78;10401288;28;19929;-65
2023/03/04 20:44:07;;;;;;;;;;;;;;;5.59;83.47;102248.59;10416314;28;19925;-65
2023/03/04 20:49:14;;;;;;;;;;;;;;;5.69;82.91;102246.75;10416236;28;19925;-65
2023/03/04 20:54:17;;;;;;;;;;;;;;;5.63;83.80;102247.72;10420851;28;19929;-65
2023/03/04 20:59:19;;;;;;;;;;;;;;;5.40;83.21;102248.84;10419809;28;19925;-64
2023/03/04 21:04:22;;;;;;;;;;;;;;;5.66;83.25;102247.63;10401164;28;19925;-65
2023/03/04 21:09:25;;;;;;;;;;;;;;;5.52;83.02;102242.63;10419396;28;19929;-65
2023/03/04 21:14:28;;;;;;;;;;;;;;;5.56;83.76;102240.84;10420133;28;19932;-64
2023/03/04 21:19:31;;;;;;;;;;;;;;;5.21;84.71;102240.44;10419391;28;19948;-64
2023/03/04 21:24:34;;;;;;;;;;;;;;;5.33;85.91;102239.41;10418474;28;19925;-64
2023/03/04 21:29:36;;;;;;;;;;;;;;;5.14;86.28;102228.38;10417994;28;19936;-64
2023/03/04 21:34:39;;;;;;;;;;;;;;;5.47;85.78;102223.66;10417222;28;19925;-64
2023/03/04 21:39:41;;;;;;;;;;;;;;;5.34;85.58;102216.91;10401384;28;19926;-64
2023/03/04 21:44:44;;;;;;;;;;;;;;;5.28;87.78;102209.19;10416089;28;19925;-64
2023/03/04 21:49:51;;;;;;;;;;;;;;;5.37;89.23;102209.06;10400041;28;19929;-65
2023/03/04 21:54:54;;;;;;;;;;;;;;;5.35;90.09;102208.25;10416470;28;20315;-64
2023/03/04 21:59:57;;;;;;;;;;;;;;;5.15;91.05;102216.28;10416865;28;19999;-64
2023/03/04 22:04:59;;;;;;;;;;;;;;;5.34;90.99;102196.97;10417390;28;20288;-64
2023/03/04 22:10:03;;;;;;;;;;;;;;;5.35;91.31;102190.06;10414854;28;19925;-65
2023/03/04 22:15:06;;;;;;;;;;;;;;;5.15;92.15;102196.34;10417707;28;19932;-64
2023/03/04 22:20:08;;;;;;;;;;;;;;;5.21;91.81;102198.00;10417499;28;19976;-64
2023/03/04 22:25:10;;;;;;;;;;;;;;;5.10;92.32;102199.91;10415476;28;20443;-64
2023/03/04 22:30:15;;;;;;;;;;;;;;;5.07;90.71;102194.75;10414820;28;19925;-64
2023/03/04 22:35:17;;;;;;;;;;;;;;;4.88;93.75;102196.69;10416216;28;19983;-64
2023/03/04 22:40:20;;;;;;;;;;;;;;;5.10;92.48;102200.75;10398695;28;19948;-64
2023/03/04 22:45:25;;;;;;;;;;;;;;;5.11;91.95;102193.81;10414069;28;20369;-65
2023/03/04 22:50:27;;;;;;;;;;;;;;;4.90;92.28;102185.41;10397863;28;19975;-65
2023/03/04 22:55:29;;;;;;;;;;;;;;;4.67;91.84;102184.78;10415807;28;19932;-65
2023/03/04 23:00:32;;;;;;;;;;;;;;;4.88;93.00;102170.75;10398645;28;19972;-64
2023/03/04 23:05:34;;;;;;;;;;;;;;;4.88;91.66;102181.97;10414708;28;19978;-64
2023/03/04 23:10:36;;;;;;;;;;;;;;;4.94;91.73;102181.03;10412846;28;19925;-65
2023/03/04 23:15:38;;;;;;;;;;;;;;;4.67;92.00;102167.50;10415410;28;20319;-64
2023/03/04 23:20:42;;;;;;;;;;;;;;;4.53;94.37;102171.97;10396934;28;19953;-64
2023/03/04 23:25:45;;;;;;;;;;;;;;;4.41;94.09;102165.19;10414984;28;19940;-64
2023/03/04 23:30:47;;;;;;;;;;;;;;;4.31;98.44;102164.41;10413906;28;19944;-64
2023/03/04 23:35:49;;;;;;;;;;;;;;;4.39;97.44;102160.00;10415607;28;19925;-64
2023/03/04 23:40:51;;;;;;;;;;;;;;;4.45;96.20;102153.88;10415306;28;19925;-64
2023/03/04 23:45:54;;;;;;;;;;;;;;;4.53;94.18;102148.63;10414395;28;19932;-65
2023/03/04 23:50:58;;;;;;;;;;;;;;;4.39;96.01;102144.44;10413038;28;20422;-64
2023/03/04 23:56:00;;;;;;;;;;;;;;;4.45;95.02;102141.81;10414635;28;19940;-64
